sensor_id;sensor_type;location;lat;lon;timestamp;pressure;altitude;pressure_sealevel;temperature;humidity
15477;BME280;7840;42.702;23.296;2023-09-18T00:01:59;95576.88;;;17.56;100.00
15477;BME280;7840;42.702;23.296;2023-09-18T00:04:28;95568.31;;;17.59;100.00
15477;BME280;7840;42.702;23.296;2023-09-18T00:06:56;95570.78;;;17.50;100.00
15477;BME280;7840;42.702;23.296;2023-09-18T00:09:23;95562.19;;;17.54;100.00
15477;BME280;7840;42.702;23.296;2023-09-18T00:11:51;95567.25;;;17.55;100.00
15477;BME280;7840;42.702;23.296;2023-09-18T00:14:19;95560.56;;;17.58;100.00
15477;BME280;7840;42.702;23.296;2023-09-18T00:16:46;95561.38;;;17.53;100.00
15477;BME280;7840;42.702;23.296;2023-09-18T00:19:14;95560.00;;;17.61;100.00
15477;BME280;7840;42.702;23.296;2023-09-18T00:21:43;95564.28;;;17.57;100.00
15477;BME280;7840;42.702;23.296;2023-09-18T00:24:10;95563.97;;;17.63;100.00
15477;BME280;7840;42.702;23.296;2023-09-18T00:26:38;95563.78;;;17.55;100.00
15477;BME280;7840;42.702;23.296;2023-09-18T00:29:05;95569.72;;;17.46;100.00
15477;BME280;7840;42.702;23.296;2023-09-18T00:31:33;95576.69;;;17.47;100.00
15477;BME280;7840;42.702;23.296;2023-09-18T00:34:00;95565.97;;;17.47;100.00
15477;BME280;7840;42.702;23.296;2023-09-18T00:36:28;95572.91;;;17.48;100.00
15477;BME280;7840;42.702;23.296;2023-09-18T00:38:57;95573.22;;;17.42;100.00
15477;BME280;7840;42.702;23.296;2023-09-18T00:41:24;95567.34;;;17.40;100.00
15477;BME280;7840;42.702;23.296;2023-09-18T00:43:52;95568.19;;;17.35;100.00
15477;BME280;7840;42.702;23.296;2023-09-18T00:46:20;95567.16;;;17.31;100.00
15477;BME280;7840;42.702;23.296;2023-09-18T00:48:48;95571.13;;;17.39;100.00
15477;BME280;7840;42.702;23.296;2023-09-18T00:51:17;95576.44;;;17.44;100.00
15477;BME280;7840;42.702;23.296;2023-09-18T00:53:46;95571.63;;;17.41;100.00
15477;BME280;7840;42.702;23.296;2023-09-18T00:56:16;95574.06;;;17.37;100.00
15477;BME280;7840;42.702;23.296;2023-09-18T00:58:46;95570.84;;;17.35;100.00
15477;BME280;7840;42.702;23.296;2023-09-18T01:01:17;95574.03;;;17.42;100.00
15477;BME280;7840;42.702;23.296;2023-09-18T01:03:49;95579.94;;;17.39;100.00
15477;BME280;7840;42.702;23.296;2023-09-18T01:06:17;95579.94;;;17.39;100.00
15477;BME280;7840;42.702;23.296;2023-09-18T01:08:47;95581.00;;;17.43;100.00
15477;BME280;7840;42.702;23.296;2023-09-18T01:11:26;95588.75;;;17.45;100.00
15477;BME280;7840;42.702;23.296;2023-09-18T01:16:39;95582.53;;;17.55;100.00
15477;BME280;7840;42.702;23.296;2023-09-18T01:19:07;95580.94;;;17.54;100.00
15477;BME280;7840;42.702;23.296;2023-09-18T01:21:35;95590.03;;;17.58;100.00
15477;BME280;7840;42.702;23.296;2023-09-18T01:24:05;95573.72;;;17.49;100.00
15477;BME280;7840;42.702;23.296;2023-09-18T01:26:33;95583.63;;;17.48;100.00
15477;BME280;7840;42.702;23.296;2023-09-18T01:29:01;95586.84;;;17.50;100.00
15477;BME280;7840;42.702;23.296;2023-09-18T01:31:28;95583.09;;;17.52;100.00
15477;BME280;7840;42.702;23.296;2023-09-18T01:33:57;95579.56;;;17.56;100.00
15477;BME280;7840;42.702;23.296;2023-09-18T01:36:26;95585.19;;;17.60;100.00
15477;BME280;7840;42.702;23.296;2023-09-18T01:38:54;95579.34;;;17.53;100.00
15477;BME280;7840;42.702;23.296;2023-09-18T01:41:24;95590.59;;;17.49;100.00
15477;BME280;7840;42.702;23.296;2023-09-18T01:43:51;95586.06;;;17.50;100.00
15477;BME280;7840;42.702;23.296;2023-09-18T01:46:19;95589.28;;;17.42;100.00
15477;BME280;7840;42.702;23.296;2023-09-18T01:48:47;95572.44;;;17.41;100.00
15477;BME280;7840;42.702;23.296;2023-09-18T01:51:15;95587.22;;;17.34;100.00
15477;BME280;7840;42.702;23.296;2023-09-18T01:53:43;95582.66;;;17.34;100.00
15477;BME280;7840;42.702;23.296;2023-09-18T01:56:10;95581.00;;;17.43;100.00
15477;BME280;7840;42.702;23.296;2023-09-18T01:58:42;95577.28;;;17.39;100.00
15477;BME280;7840;42.702;23.296;2023-09-18T02:01:09;95580.75;;;17.40;100.00
15477;BME280;7840;42.702;23.296;2023-09-18T02:03:37;95586.91;;;17.40;100.00
15477;BME280;7840;42.702;23.296;2023-09-18T02:06:07;95582.66;;;17.34;100.00
15477;BME280;7840;42.702;23.296;2023-09-18T02:08:35;95582.91;;;17.38;100.00
15477;BME280;7840;42.702;23.296;2023-09-18T02:11:03;95585.59;;;17.33;100.00
15477;BME280;7840;42.702;23.296;2023-09-18T02:13:31;95590.44;;;17.31;100.00
15477;BME280;7840;42.702;23.296;2023-09-18T02:15:59;95590.16;;;17.32;100.00
15477;BME280;7840;42.702;23.296;2023-09-18T02:18:27;95583.19;;;17.36;100.00
15477;BME280;7840;42.702;23.296;2023-09-18T02:20:54;95583.19;;;17.36;100.00
15477;BME280;7840;42.702;23.296;2023-09-18T02:23:22;95592.81;;;17.37;100.00
15477;BME280;7840;42.702;23.296;2023-09-18T02:25:56;95582.13;;;17.37;100.00
15477;BME280;7840;42.702;23.296;2023-09-18T02:28:23;95583.22;;;17.31;100.00
15477;BME280;7840;42.702;23.296;2023-09-18T02:30:51;95586.97;;;17.30;100.00
15477;BME280;7840;42.702;23.296;2023-09-18T02:33:20;95588.06;;;17.24;100.00
15477;BME280;7840;42.702;23.296;2023-09-18T02:35:47;95585.91;;;17.26;100.00
15477;BME280;7840;42.702;23.296;2023-09-18T02:38:15;95589.41;;;17.21;100.00
15477;BME280;7840;42.702;23.296;2023-09-18T02:40:42;95582.75;;;17.14;100.00
15477;BME280;7840;42.702;23.296;2023-09-18T02:43:10;95588.66;;;17.11;100.00
15477;BME280;7840;42.702;23.296;2023-09-18T02:45:37;95582.50;;;17.10;100.00
15477;BME280;7840;42.702;23.296;2023-09-18T02:48:05;95587.09;;;17.05;100.00
15477;BME280;7840;42.702;23.296;2023-09-18T02:50:34;95589.78;;;16.94;100.00
15477;BME280;7840;42.702;23.296;2023-09-18T02:53:01;95586.59;;;16.98;100.00
15477;BME280;7840;42.702;23.296;2023-09-18T02:55:29;95588.69;;;17.01;100.00
15477;BME280;7840;42.702;23.296;2023-09-18T02:57:56;95593.53;;;16.93;100.00
15477;BME280;7840;42.702;23.296;2023-09-18T03:00:25;95593.53;;;16.93;100.00
15477;BME280;7840;42.702;23.296;2023-09-18T03:02:52;95601.84;;;16.92;100.00
15477;BME280;7840;42.702;23.296;2023-09-18T03:05:20;95592.50;;;16.89;100.00
15477;BME280;7840;42.702;23.296;2023-09-18T03:07:49;95603.72;;;16.91;100.00
15477;BME280;7840;42.702;23.296;2023-09-18T03:10:17;95597.81;;;17.00;100.00
15477;BME280;7840;42.702;23.296;2023-09-18T03:12:48;95600.50;;;16.94;100.00
15477;BME280;7840;42.702;23.296;2023-09-18T03:15:15;95596.19;;;16.99;100.00
15477;BME280;7840;42.702;23.296;2023-09-18T03:17:43;95590.63;;;16.95;100.00
15477;BME280;7840;42.702;23.296;2023-09-18T03:20:11;95591.41;;;16.95;100.00
15477;BME280;7840;42.702;23.296;2023-09-18T03:22:38;95590.91;;;16.88;100.00
15477;BME280;7840;42.702;23.296;2023-09-18T03:25:08;95594.09;;;16.90;100.00
15477;BME280;7840;42.702;23.296;2023-09-18T03:27:36;95589.28;;;16.87;100.00
15477;BME280;7840;42.702;23.296;2023-09-18T03:30:04;95588.25;;;16.83;100.00
15477;BME280;7840;42.702;23.296;2023-09-18T03:32:33;95582.34;;;16.86;100.00
15477;BME280;7840;42.702;23.296;2023-09-18T03:35:02;95586.13;;;16.75;100.00
15477;BME280;7840;42.702;23.296;2023-09-18T03:37:30;95586.66;;;16.82;100.00
15477;BME280;7840;42.702;23.296;2023-09-18T03:39:57;95588.25;;;16.83;100.00
15477;BME280;7840;42.702;23.296;2023-09-18T03:42:26;95577.53;;;16.78;100.00
15477;BME280;7840;42.702;23.296;2023-09-18T03:44:54;95576.75;;;16.73;100.00
15477;BME280;7840;42.702;23.296;2023-09-18T03:47:21;95574.34;;;16.71;100.00
15477;BME280;7840;42.702;23.296;2023-09-18T03:49:49;95579.13;;;16.84;100.00
15477;BME280;7840;42.702;23.296;2023-09-18T03:52:16;95569.00;;;16.76;100.00
15477;BME280;7840;42.702;23.296;2023-09-18T03:54:43;95572.44;;;16.87;100.00
15477;BME280;7840;42.702;23.296;2023-09-18T03:57:11;95570.06;;;16.75;100.00
15477;BME280;7840;42.702;23.296;2023-09-18T03:59:40;95577.00;;;16.66;100.00
15477;BME280;7840;42.702;23.296;2023-09-18T04:02:08;95571.13;;;16.69;100.00
15477;BME280;7840;42.702;23.296;2023-09-18T04:04:35;95569.28;;;16.64;100.00
15477;BME280;7840;42.702;23.296;2023-09-18T04:07:06;95569.81;;;16.61;100.00
15477;BME280;7840;42.702;23.296;2023-09-18T04:09:33;95576.50;;;16.59;100.00
15477;BME280;7840;42.702;23.296;2023-09-18T04:12:02;95575.97;;;16.57;100.00
15477;BME280;7840;42.702;23.296;2023-09-18T04:14:31;95570.91;;;16.55;100.00
15477;BME280;7840;42.702;23.296;2023-09-18T04:17:07;95580.53;;;16.51;100.00
15477;BME280;7840;42.702;23.296;2023-09-18T04:19:35;95584.00;;;16.57;100.00
15477;BME280;7840;42.702;23.296;2023-09-18T04:22:03;95586.69;;;16.52;100.00
15477;BME280;7840;42.702;23.296;2023-09-18T04:24:30;95586.44;;;16.43;100.00
15477;BME280;7840;42.702;23.296;2023-09-18T04:26:58;95592.59;;;16.44;100.00
15477;BME280;7840;42.702;23.296;2023-09-18T04:29:25;95590.19;;;16.47;100.00
15477;BME280;7840;42.702;23.296;2023-09-18T04:31:53;95588.84;;;16.55;100.00
15477;BME280;7840;42.702;23.296;2023-09-18T04:34:22;95594.41;;;16.58;100.00
15477;BME280;7840;42.702;23.296;2023-09-18T04:36:49;95590.94;;;16.68;100.00
15477;BME280;7840;42.702;23.296;2023-09-18T04:39:17;95596.28;;;16.63;100.00
15477;BME280;7840;42.702;23.296;2023-09-18T04:41:45;95593.59;;;16.73;100.00
15477;BME280;7840;42.702;23.296;2023-09-18T04:44:13;95594.16;;;16.70;100.00
15477;BME280;7840;42.702;23.296;2023-09-18T04:46:41;95601.34;;;16.80;100.00
15477;BME280;7840;42.702;23.296;2023-09-18T04:49:09;95599.47;;;16.85;100.00
15477;BME280;7840;42.702;23.296;2023-09-18T04:51:39;95596.84;;;16.75;100.00
15477;BME280;7840;42.702;23.296;2023-09-18T04:54:07;95593.88;;;16.82;100.00
15477;BME280;7840;42.702;23.296;2023-09-18T04:56:35;95594.91;;;16.91;100.00
15477;BME280;7840;42.702;23.296;2023-09-18T04:59:03;95600.25;;;16.91;100.00
15477;BME280;7840;42.702;23.296;2023-09-18T05:01:31;95595.63;;;17.12;100.00
15477;BME280;7840;42.702;23.296;2023-09-18T05:03:58;95585.41;;;17.24;100.00
15477;BME280;7840;42.702;23.296;2023-09-18T05:06:26;95587.47;;;17.37;100.00
15477;BME280;7840;42.702;23.296;2023-09-18T05:08:56;95582.31;;;17.46;100.00
15477;BME280;7840;42.702;23.296;2023-09-18T05:11:24;95588.38;;;17.62;100.00
15477;BME280;7840;42.702;23.296;2023-09-18T05:13:52;95578.19;;;17.64;100.00
15477;BME280;7840;42.702;23.296;2023-09-18T05:16:20;95589.63;;;17.80;100.00
15477;BME280;7840;42.702;23.296;2023-09-18T05:18:47;95595.78;;;17.85;100.00
15477;BME280;7840;42.702;23.296;2023-09-18T05:21:17;95598.88;;;17.97;100.00
15477;BME280;7840;42.702;23.296;2023-09-18T05:23:48;95602.75;;;18.15;100.00
15477;BME280;7840;42.702;23.296;2023-09-18T05:26:17;95599.81;;;18.12;100.00
15477;BME280;7840;42.702;23.296;2023-09-18T05:28:45;95596.94;;;18.03;100.00
15477;BME280;7840;42.702;23.296;2023-09-18T05:31:13;95600.84;;;18.21;100.00
15477;BME280;7840;42.702;23.296;2023-09-18T05:33:41;95601.94;;;18.20;100.00
15477;BME280;7840;42.702;23.296;2023-09-18T05:36:09;95598.00;;;18.36;100.00
15477;BME280;7840;42.702;23.296;2023-09-18T05:38:36;95594.16;;;18.47;100.00
15477;BME280;7840;42.702;23.296;2023-09-18T05:41:04;95597.81;;;18.56;100.00
15477;BME280;7840;42.702;23.296;2023-09-18T05:43:33;95591.41;;;18.52;100.00
15477;BME280;7840;42.702;23.296;2023-09-18T05:46:01;95597.81;;;18.56;100.00
15477;BME280;7840;42.702;23.296;2023-09-18T05:48:29;95601.34;;;18.52;100.00
15477;BME280;7840;42.702;23.296;2023-09-18T05:50:57;95600.78;;;18.55;100.00
15477;BME280;7840;42.702;23.296;2023-09-18T05:53:25;95591.53;;;18.71;100.00
15477;BME280;7840;42.702;23.296;2023-09-18T05:55:52;95597.50;;;18.87;100.00
15477;BME280;7840;42.702;23.296;2023-09-18T05:58:22;95606.09;;;18.89;100.00
15477;BME280;7840;42.702;23.296;2023-09-18T06:00:54;95600.50;;;19.09;100.00
15477;BME280;7840;42.702;23.296;2023-09-18T06:03:21;95596.38;;;19.17;100.00
15477;BME280;7840;42.702;23.296;2023-09-18T06:05:49;95594.44;;;19.41;100.00
15477;BME280;7840;42.702;23.296;2023-09-18T06:08:16;95592.13;;;19.54;100.00
15477;BME280;7840;42.702;23.296;2023-09-18T06:10:45;95586.41;;;19.60;100.00
15477;BME280;7840;42.702;23.296;2023-09-18T06:13:12;95587.16;;;19.66;100.00
15477;BME280;7840;42.702;23.296;2023-09-18T06:15:40;95587.81;;;19.77;100.00
15477;BME280;7840;42.702;23.296;2023-09-18T06:18:09;95583.28;;;19.91;100.00
15477;BME280;7840;42.702;23.296;2023-09-18T06:20:36;95590.09;;;20.02;100.00
15477;BME280;7840;42.702;23.296;2023-09-18T06:23:04;95585.13;;;20.09;100.00
15477;BME280;7840;42.702;23.296;2023-09-18T06:25:32;95590.09;;;20.02;100.00
15477;BME280;7840;42.702;23.296;2023-09-18T06:27:59;95586.94;;;20.14;100.00
15477;BME280;7840;42.702;23.296;2023-09-18T06:30:29;95594.72;;;20.15;100.00
15477;BME280;7840;42.702;23.296;2023-09-18T06:32:59;95592.69;;;20.07;100.00
15477;BME280;7840;42.702;23.296;2023-09-18T06:35:28;95592.78;;;20.35;100.00
15477;BME280;7840;42.702;23.296;2023-09-18T06:37:56;95594.75;;;20.48;100.00
15477;BME280;7840;42.702;23.296;2023-09-18T06:40:25;95586.47;;;20.58;100.00
15477;BME280;7840;42.702;23.296;2023-09-18T06:42:58;95586.47;;;20.58;100.00
15477;BME280;7840;42.702;23.296;2023-09-18T06:45:27;95587.28;;;20.72;100.00
15477;BME280;7840;42.702;23.296;2023-09-18T06:47:54;95586.00;;;20.84;100.00
15477;BME280;7840;42.702;23.296;2023-09-18T06:50:22;95589.09;;;20.91;100.00
15477;BME280;7840;42.702;23.296;2023-09-18T06:52:52;95578.72;;;20.98;100.00
15477;BME280;7840;42.702;23.296;2023-09-18T06:55:20;95587.41;;;20.95;100.00
15477;BME280;7840;42.702;23.296;2023-09-18T06:57:48;95584.31;;;20.88;100.00
15477;BME280;7840;42.702;23.296;2023-09-18T07:00:18;95585.69;;;20.99;100.00
15477;BME280;7840;42.702;23.296;2023-09-18T07:02:47;95588.22;;;20.82;100.00
15477;BME280;7840;42.702;23.296;2023-09-18T07:05:15;95589.59;;;20.93;100.00
15477;BME280;7840;42.702;23.296;2023-09-18T07:07:43;95581.94;;;21.00;100.00
15477;BME280;7840;42.702;23.296;2023-09-18T07:10:12;95586.31;;;21.23;100.00
15477;BME280;7840;42.702;23.296;2023-09-18T07:12:39;95573.81;;;21.55;100.00
15477;BME280;7840;42.702;23.296;2023-09-18T07:15:08;95574.34;;;21.66;100.00
15477;BME280;7840;42.702;23.296;2023-09-18T07:17:35;95576.78;;;21.90;100.00
15477;BME280;7840;42.702;23.296;2023-09-18T07:20:03;95576.69;;;22.17;100.00
15477;BME280;7840;42.702;23.296;2023-09-18T07:22:40;95574.28;;;22.38;100.00
15477;BME280;7840;42.702;23.296;2023-09-18T07:25:08;95579.53;;;22.43;100.00
15477;BME280;7840;42.702;23.296;2023-09-18T07:27:37;95576.16;;;22.60;100.00
15477;BME280;7840;42.702;23.296;2023-09-18T07:30:07;95572.09;;;22.80;100.00
15477;BME280;7840;42.702;23.296;2023-09-18T07:32:36;95579.19;;;22.98;100.00
15477;BME280;7840;42.702;23.296;2023-09-18T07:35:06;95579.97;;;22.99;100.00
15477;BME280;7840;42.702;23.296;2023-09-18T07:37:35;95575.56;;;23.03;100.00
15477;BME280;7840;42.702;23.296;2023-09-18T07:40:03;95572.13;;;23.28;100.00
15477;BME280;7840;42.702;23.296;2023-09-18T07:42:31;95568.31;;;23.38;100.00
15477;BME280;7840;42.702;23.296;2023-09-18T07:45:00;95578.81;;;23.39;100.00
15477;BME280;7840;42.702;23.296;2023-09-18T07:47:27;95569.09;;;23.30;100.00
15477;BME280;7840;42.702;23.296;2023-09-18T07:49:55;95568.50;;;23.59;100.00
15477;BME280;7840;42.702;23.296;2023-09-18T07:52:22;95577.16;;;23.69;100.00
15477;BME280;7840;42.702;23.296;2023-09-18T07:54:50;95565.84;;;23.76;100.00
15477;BME280;7840;42.702;23.296;2023-09-18T07:57:17;95560.63;;;23.88;100.00
15477;BME280;7840;42.702;23.296;2023-09-18T07:59:45;95568.38;;;23.81;100.00
15477;BME280;7840;42.702;23.296;2023-09-18T08:02:15;95564.28;;;23.75;100.00
15477;BME280;7840;42.702;23.296;2023-09-18T08:04:43;95560.28;;;23.90;100.00
15477;BME280;7840;42.702;23.296;2023-09-18T08:07:11;95560.44;;;23.93;100.00
15477;BME280;7840;42.702;23.296;2023-09-18T08:09:38;95557.88;;;23.71;100.00
15477;BME280;7840;42.702;23.296;2023-09-18T08:12:07;95562.50;;;23.88;100.00
15477;BME280;7840;42.702;23.296;2023-09-18T08:14:35;95562.63;;;24.09;100.00
15477;BME280;7840;42.702;23.296;2023-09-18T08:17:04;95557.22;;;24.43;98.74
15477;BME280;7840;42.702;23.296;2023-09-18T08:19:34;95557.69;;;24.45;99.15
15477;BME280;7840;42.702;23.296;2023-09-18T08:22:03;95552.09;;;24.50;95.43
15477;BME280;7840;42.702;23.296;2023-09-18T08:24:31;95548.31;;;24.34;95.21
15477;BME280;7840;42.702;23.296;2023-09-18T08:26:58;95550.53;;;24.15;96.38
15477;BME280;7840;42.702;23.296;2023-09-18T08:29:26;95547.00;;;24.32;96.84
15477;BME280;7840;42.702;23.296;2023-09-18T08:31:53;95538.44;;;24.38;94.73
15477;BME280;7840;42.702;23.296;2023-09-18T08:34:21;95539.78;;;24.62;93.97
15477;BME280;7840;42.702;23.296;2023-09-18T08:36:50;95537.94;;;24.83;91.83
15477;BME280;7840;42.702;23.296;2023-09-18T08:39:17;95543.63;;;24.90;89.40
15477;BME280;7840;42.702;23.296;2023-09-18T08:41:48;95527.53;;;24.94;87.21
15477;BME280;7840;42.702;23.296;2023-09-18T08:44:24;95531.38;;;24.84;88.81
15477;BME280;7840;42.702;23.296;2023-09-18T08:46:54;95526.06;;;24.96;87.83
15477;BME280;7840;42.702;23.296;2023-09-18T08:49:24;95525.25;;;25.04;84.63
15477;BME280;7840;42.702;23.296;2023-09-18T08:51:55;95526.38;;;25.33;82.91
15477;BME280;7840;42.702;23.296;2023-09-18T08:54:23;95518.13;;;25.50;80.67
15477;BME280;7840;42.702;23.296;2023-09-18T08:56:51;95519.41;;;25.74;79.80
15477;BME280;7840;42.702;23.296;2023-09-18T08:59:21;95515.22;;;25.76;80.17
15477;BME280;7840;42.702;23.296;2023-09-18T09:01:49;95522.06;;;25.53;78.45
15477;BME280;7840;42.702;23.296;2023-09-18T09:04:17;95520.03;;;25.71;77.10
15477;BME280;7840;42.702;23.296;2023-09-18T09:06:44;95516.47;;;25.79;77.69
15477;BME280;7840;42.702;23.296;2023-09-18T09:09:13;95508.81;;;26.14;76.38
15477;BME280;7840;42.702;23.296;2023-09-18T09:11:49;95513.28;;;26.31;76.62
15477;BME280;7840;42.702;23.296;2023-09-18T09:14:17;95512.38;;;26.39;73.51
15477;BME280;7840;42.702;23.296;2023-09-18T09:16:48;95512.56;;;26.67;71.48
15477;BME280;7840;42.702;23.296;2023-09-18T09:19:16;95502.94;;;26.69;71.27
15477;BME280;7840;42.702;23.296;2023-09-18T09:21:45;95509.97;;;26.95;70.69
15477;BME280;7840;42.702;23.296;2023-09-18T09:24:14;95497.50;;;26.94;69.89
15477;BME280;7840;42.702;23.296;2023-09-18T09:26:42;95498.88;;;27.24;67.61
15477;BME280;7840;42.702;23.296;2023-09-18T09:29:18;95504.31;;;26.88;64.52
15477;BME280;7840;42.702;23.296;2023-09-18T09:31:46;95507.38;;;27.11;65.14
15477;BME280;7840;42.702;23.296;2023-09-18T09:34:24;95501.81;;;26.95;66.94
15477;BME280;7840;42.702;23.296;2023-09-18T09:36:53;95499.53;;;27.34;65.31
15477;BME280;7840;42.702;23.296;2023-09-18T09:39:22;95492.00;;;27.55;64.86
15477;BME280;7840;42.702;23.296;2023-09-18T09:41:52;95490.06;;;27.96;63.43
15477;BME280;7840;42.702;23.296;2023-09-18T09:44:20;95491.47;;;27.90;61.62
15477;BME280;7840;42.702;23.296;2023-09-18T09:46:48;95496.16;;;28.05;60.06
15477;BME280;7840;42.702;23.296;2023-09-18T09:49:17;95490.72;;;28.05;60.17
15477;BME280;7840;42.702;23.296;2023-09-18T09:51:46;95486.56;;;27.95;60.83
15477;BME280;7840;42.702;23.296;2023-09-18T09:54:14;95473.72;;;27.80;61.87
15477;BME280;7840;42.702;23.296;2023-09-18T09:56:44;95483.88;;;27.83;61.28
15477;BME280;7840;42.702;23.296;2023-09-18T09:59:13;95485.19;;;27.73;61.68
15477;BME280;7840;42.702;23.296;2023-09-18T10:01:41;95478.34;;;28.07;61.59
15477;BME280;7840;42.702;23.296;2023-09-18T10:04:13;95469.16;;;28.00;61.87
15477;BME280;7840;42.702;23.296;2023-09-18T10:06:45;95474.13;;;28.10;60.95
15477;BME280;7840;42.702;23.296;2023-09-18T10:09:15;95467.91;;;28.25;60.49
15477;BME280;7840;42.702;23.296;2023-09-18T10:11:48;95461.25;;;28.39;59.71
15477;BME280;7840;42.702;23.296;2023-09-18T10:14:20;95463.78;;;28.16;56.68
15477;BME280;7840;42.702;23.296;2023-09-18T10:16:50;95465.13;;;27.94;58.15
15477;BME280;7840;42.702;23.296;2023-09-18T10:19:28;95464.84;;;27.83;58.38
15477;BME280;7840;42.702;23.296;2023-09-18T10:22:06;95458.94;;;28.25;57.19
15477;BME280;7840;42.702;23.296;2023-09-18T10:24:39;95465.31;;;28.45;56.46
15477;BME280;7840;42.702;23.296;2023-09-18T10:27:08;95451.38;;;28.81;55.89
15477;BME280;7840;42.702;23.296;2023-09-18T10:29:37;95440.53;;;29.16;53.77
15477;BME280;7840;42.702;23.296;2023-09-18T10:32:06;95439.56;;;29.09;53.68
15477;BME280;7840;42.702;23.296;2023-09-18T10:34:35;95432.00;;;29.18;54.61
15477;BME280;7840;42.702;23.296;2023-09-18T10:37:04;95433.94;;;29.53;53.13
15477;BME280;7840;42.702;23.296;2023-09-18T10:39:35;95428.59;;;29.79;51.56
15477;BME280;7840;42.702;23.296;2023-09-18T10:42:04;95422.31;;;29.98;49.77
15477;BME280;7840;42.702;23.296;2023-09-18T10:44:35;95423.75;;;30.11;49.17
15477;BME280;7840;42.702;23.296;2023-09-18T10:47:04;95422.78;;;30.23;48.92
15477;BME280;7840;42.702;23.296;2023-09-18T10:49:34;95418.75;;;30.40;48.83
15477;BME280;7840;42.702;23.296;2023-09-18T10:52:02;95415.03;;;30.06;48.69
15477;BME280;7840;42.702;23.296;2023-09-18T10:54:31;95417.50;;;30.11;48.56
15477;BME280;7840;42.702;23.296;2023-09-18T10:56:59;95412.63;;;30.01;48.60
15477;BME280;7840;42.702;23.296;2023-09-18T10:59:28;95411.63;;;29.51;50.11
15477;BME280;7840;42.702;23.296;2023-09-18T11:02:02;95411.97;;;29.10;51.37
15477;BME280;7840;42.702;23.296;2023-09-18T11:04:32;95404.00;;;29.21;51.92
15477;BME280;7840;42.702;23.296;2023-09-18T11:07:03;95406.78;;;29.05;51.38
15477;BME280;7840;42.702;23.296;2023-09-18T11:09:40;95402.72;;;29.34;51.00
15477;BME280;7840;42.702;23.296;2023-09-18T11:12:09;95392.38;;;29.24;51.45
15477;BME280;7840;42.702;23.296;2023-09-18T11:14:58;95387.75;;;29.28;50.18
15477;BME280;7840;42.702;23.296;2023-09-18T11:17:32;95395.97;;;29.48;50.00
15477;BME280;7840;42.702;23.296;2023-09-18T11:20:06;95399.56;;;29.71;49.37
15477;BME280;7840;42.702;23.296;2023-09-18T11:22:36;95393.03;;;29.98;48.54
15477;BME280;7840;42.702;23.296;2023-09-18T11:25:34;95382.66;;;30.27;47.27
15477;BME280;7840;42.702;23.296;2023-09-18T11:28:04;95372.84;;;30.49;46.01
15477;BME280;7840;42.702;23.296;2023-09-18T11:30:34;95380.38;;;30.33;46.09
15477;BME280;7840;42.702;23.296;2023-09-18T11:33:05;95378.25;;;30.00;47.65
15477;BME280;7840;42.702;23.296;2023-09-18T11:35:35;95379.94;;;30.08;46.94
15477;BME280;7840;42.702;23.296;2023-09-18T11:38:05;95376.75;;;30.25;46.82
15477;BME280;7840;42.702;23.296;2023-09-18T11:40:37;95367.09;;;30.31;47.13
15477;BME280;7840;42.702;23.296;2023-09-18T11:43:22;95359.66;;;30.81;45.84
15477;BME280;7840;42.702;23.296;2023-09-18T11:45:52;95358.06;;;31.07;44.65
15477;BME280;7840;42.702;23.296;2023-09-18T11:48:22;95363.22;;;31.12;44.20
15477;BME280;7840;42.702;23.296;2023-09-18T11:50:54;95356.47;;;30.52;45.14
15477;BME280;7840;42.702;23.296;2023-09-18T11:53:24;95359.13;;;30.98;45.22
15477;BME280;7840;42.702;23.296;2023-09-18T11:55:52;95356.38;;;31.25;44.56
15477;BME280;7840;42.702;23.296;2023-09-18T11:58:20;95353.09;;;31.46;43.81
15477;BME280;7840;42.702;23.296;2023-09-18T12:00:49;95354.47;;;31.29;43.36
15477;BME280;7840;42.702;23.296;2023-09-18T12:03:18;95356.28;;;31.21;43.97
15477;BME280;7840;42.702;23.296;2023-09-18T12:05:57;95344.59;;;31.54;43.47
15477;BME280;7840;42.702;23.296;2023-09-18T12:08:25;95351.16;;;31.80;42.77
15477;BME280;7840;42.702;23.296;2023-09-18T12:10:54;95344.00;;;31.72;41.57
15477;BME280;7840;42.702;23.296;2023-09-18T12:13:27;95356.03;;;31.00;42.84
15477;BME280;7840;42.702;23.296;2023-09-18T12:15:58;95358.63;;;30.89;44.64
15477;BME280;7840;42.702;23.296;2023-09-18T12:18:26;95350.50;;;31.23;43.63
15477;BME280;7840;42.702;23.296;2023-09-18T12:20:56;95345.63;;;31.13;44.46
15477;BME280;7840;42.702;23.296;2023-09-18T12:23:25;95357.16;;;30.95;46.35
15477;BME280;7840;42.702;23.296;2023-09-18T12:25:58;95345.50;;;30.49;47.44
15477;BME280;7840;42.702;23.296;2023-09-18T12:28:27;95334.88;;;30.44;48.58
15477;BME280;7840;42.702;23.296;2023-09-18T12:30:56;95344.16;;;30.13;48.86
15477;BME280;7840;42.702;23.296;2023-09-18T12:33:25;95332.75;;;29.46;50.71
15477;BME280;7840;42.702;23.296;2023-09-18T12:35:53;95336.88;;;28.81;52.88
15477;BME280;7840;42.702;23.296;2023-09-18T12:38:22;95335.84;;;28.70;54.33
15477;BME280;7840;42.702;23.296;2023-09-18T12:40:53;95339.13;;;28.60;54.10
15477;BME280;7840;42.702;23.296;2023-09-18T12:43:21;95341.75;;;28.72;53.57
15477;BME280;7840;42.702;23.296;2023-09-18T12:45:50;95335.63;;;29.14;52.04
15477;BME280;7840;42.702;23.296;2023-09-18T12:48:19;95328.75;;;29.39;49.86
15477;BME280;7840;42.702;23.296;2023-09-18T12:50:51;95335.56;;;29.91;49.55
15477;BME280;7840;42.702;23.296;2023-09-18T12:53:23;95335.06;;;30.09;46.75
15477;BME280;7840;42.702;23.296;2023-09-18T12:55:51;95333.16;;;30.59;46.04
15477;BME280;7840;42.702;23.296;2023-09-18T12:58:19;95329.88;;;31.02;44.42
15477;BME280;7840;42.702;23.296;2023-09-18T13:00:48;95332.16;;;31.27;42.46
15477;BME280;7840;42.702;23.296;2023-09-18T13:03:17;95320.84;;;31.66;42.78
15477;BME280;7840;42.702;23.296;2023-09-18T13:05:44;95318.13;;;31.69;41.97